Mount Solon, Virginia
Current Conditions -  °F | °C
As of 11:15 AM on Thursday 27 Nov 2014 (Local Time) from KVBW Reporting Station
Overcast Overcast  
Wind Chill: 27°   Ceiling: 300
Heat Index: 32°   Visibility: 1.7mi
Dew Point: 32°   Wind: 5mph
Humidity: 100%   Direction: 300°WNW
Pressure: 30.04"   Gusts: NA
Location:  38.35°N, 79.08°W
Report Text: KVBW 271615Z AUTO 30004KT 1 3/4SM OVC003 00/00 A3004 RMK AO2 T00000000
Loading
Personal Weather Stations






























Interactive Weather Map New forecast layout! Learn more

10-Day Weather Forecast

Advertisements
Track Severe Weather on mobile